createdAt,value
2019-04-07T00:00:26.524Z,5.0970
2019-04-07T00:01:44.377Z,5.0668
2019-04-07T00:03:02.453Z,5.0366
2019-04-07T00:04:20.355Z,5.0266
2019-04-07T00:05:37.875Z,5.0266
2019-04-07T00:06:56.141Z,4.9963
2019-04-07T00:08:13.669Z,4.9863
2019-04-07T00:09:31.132Z,4.9359
2019-04-07T00:10:48.614Z,4.8755
2019-04-07T00:12:06.131Z,4.8151
2019-04-07T00:13:23.651Z,4.7849
2019-04-07T00:14:41.104Z,4.7546
2019-04-07T00:15:57.551Z,4.7345
2019-04-07T00:17:15.018Z,4.7345
2019-04-07T00:18:32.527Z,4.7345
2019-04-07T00:19:50.406Z,4.7244
2019-04-07T00:21:07.896Z,4.7043
2019-04-07T00:22:25.318Z,4.6942
2019-04-07T00:23:42.979Z,4.6640
2019-04-07T00:25:00.720Z,4.6640
2019-04-07T00:26:18.255Z,4.6640
2019-04-07T00:27:35.737Z,4.6539
2019-04-07T00:28:53.202Z,4.6338
2019-04-07T00:30:10.755Z,4.6237
2019-04-07T00:31:28.877Z,4.6036
2019-04-07T00:32:46.769Z,4.6237
2019-04-07T00:34:04.252Z,4.6539
2019-04-07T00:35:26.822Z,4.6741
2019-04-07T00:36:43.083Z,4.7043
2019-04-07T00:38:00.616Z,4.7546
2019-04-07T00:39:18.113Z,4.7849
2019-04-07T00:40:35.889Z,4.8151
2019-04-07T00:41:53.332Z,4.8755
2019-04-07T00:43:10.884Z,4.9057
2019-04-07T00:44:29.023Z,4.9359
2019-04-07T00:45:47.007Z,4.9661
2019-04-07T00:47:04.480Z,4.9963
2019-04-07T00:48:22.159Z,5.0165
2019-04-07T00:49:40.078Z,5.0266
2019-04-07T00:50:57.634Z,5.0266
2019-04-07T00:52:15.050Z,5.0266
2019-04-07T00:53:32.599Z,5.0568
2019-04-07T00:54:50.055Z,5.0970
2019-04-07T00:56:07.487Z,5.1273
2019-04-07T00:57:25.344Z,5.1273
2019-04-07T00:58:44.493Z,5.1273
2019-04-07T01:00:02.824Z,5.1273
2019-04-07T01:01:20.720Z,5.1172
2019-04-07T01:02:38.757Z,5.1172
2019-04-07T01:03:56.833Z,5.1172
2019-04-07T01:05:14.773Z,5.1172
2019-04-07T01:06:32.921Z,5.1273
2019-04-07T01:07:50.947Z,5.1273
2019-04-07T01:09:09.110Z,5.1273
2019-04-07T01:10:27.264Z,5.1675
2019-04-07T01:11:44.782Z,5.1978
2019-04-07T01:13:02.212Z,5.2179
2019-04-07T01:14:19.806Z,5.2682
2019-04-07T01:15:37.267Z,5.2783
2019-04-07T01:16:53.760Z,5.3085
2019-04-07T01:18:11.207Z,5.3488
2019-04-07T01:19:28.870Z,5.3891
2019-04-07T01:20:46.869Z,5.4193
2019-04-07T01:22:04.331Z,5.4596
2019-04-07T01:23:22.344Z,5.4898
2019-04-07T01:24:40.503Z,5.5099
2019-04-07T01:25:58.536Z,5.5099
2019-04-07T01:27:16.043Z,5.4797
2019-04-07T01:28:33.488Z,5.4495
2019-04-07T01:29:50.938Z,5.4294
2019-04-07T01:31:08.777Z,5.4193
2019-04-07T01:32:26.676Z,5.3891
2019-04-07T01:33:44.348Z,5.3891
2019-04-07T01:35:02.414Z,5.3992
2019-04-07T01:36:19.942Z,5.4193
2019-04-07T01:37:37.381Z,5.4495
2019-04-07T01:38:54.887Z,5.4596
2019-04-07T01:40:12.372Z,5.4898
2019-04-07T01:41:29.806Z,5.5099
2019-04-07T01:42:47.286Z,5.5402
2019-04-07T01:44:04.798Z,5.5603
2019-04-07T01:45:22.285Z,5.5804
2019-04-07T01:46:39.704Z,5.6308
2019-04-07T01:47:57.145Z,5.6509
2019-04-07T01:49:15.025Z,5.6711
2019-04-07T01:50:32.781Z,5.7214
2019-04-07T01:51:50.442Z,5.7516
2019-04-07T01:53:07.893Z,5.7819
2019-04-07T01:54:25.705Z,5.8221
2019-04-07T01:55:43.881Z,5.8322
2019-04-07T01:57:01.407Z,5.8926
2019-04-07T01:58:20.057Z,5.9027
2019-04-07T01:59:37.672Z,5.9329
2019-04-07T02:00:54.158Z,5.9329
2019-04-07T02:02:11.584Z,5.9329
2019-04-07T02:03:29.105Z,5.9631
2019-04-07T02:04:46.553Z,5.9732
2019-04-07T02:06:05.557Z,5.9732
2019-04-07T02:07:23.777Z,5.9732
2019-04-07T02:08:41.725Z,5.9732
2019-04-07T02:10:00.045Z,5.9732
2019-04-07T02:11:17.528Z,5.9631
2019-04-07T02:12:35.168Z,5.9732
2019-04-07T02:13:53.263Z,5.9631
2019-04-07T02:15:11.310Z,5.9329
2019-04-07T02:16:28.780Z,5.9430
2019-04-07T02:17:46.926Z,5.9128
2019-04-07T02:19:05.047Z,5.9027
2019-04-07T02:20:23.189Z,5.9128
2019-04-07T02:21:40.713Z,5.9027
2019-04-07T02:22:58.167Z,5.9128
2019-04-07T02:24:15.771Z,5.9329
2019-04-07T02:25:33.274Z,5.9329
2019-04-07T02:26:50.755Z,5.9329
2019-04-07T02:28:08.202Z,5.9128
2019-04-07T02:29:25.662Z,5.9027
2019-04-07T02:30:43.118Z,5.9027
2019-04-07T02:32:01.315Z,5.8926
2019-04-07T02:33:19.883Z,5.8624
2019-04-07T02:34:36.351Z,5.8524
2019-04-07T02:35:53.801Z,5.8926
2019-04-07T02:37:11.990Z,5.8926
2019-04-07T02:38:29.385Z,5.9128
2019-04-07T02:39:47.066Z,5.9430
2019-04-07T02:41:04.544Z,5.9732
2019-04-07T02:42:22.800Z,6.0336
2019-04-07T02:43:40.397Z,6.0638
2019-04-07T02:44:57.887Z,6.1243
2019-04-07T02:46:14.833Z,6.1545
2019-04-07T02:47:32.307Z,6.1847
2019-04-07T02:48:50.980Z,6.1948
2019-04-07T02:50:08.868Z,6.2451
2019-04-07T02:51:26.401Z,6.2451
2019-04-07T02:52:43.876Z,6.2451
2019-04-07T02:54:02.546Z,6.2451
2019-04-07T02:55:21.871Z,6.2149
2019-04-07T02:56:39.899Z,6.1948
2019-04-07T02:57:58.263Z,6.1948
2019-04-07T02:59:16.192Z,6.1746
2019-04-07T03:00:33.686Z,6.1746
2019-04-07T03:01:52.003Z,6.1545
2019-04-07T03:03:09.540Z,6.1243
2019-04-07T03:04:27.020Z,6.0941
2019-04-07T03:05:45.261Z,6.0638
2019-04-07T03:07:03.008Z,6.0437
2019-04-07T03:08:20.466Z,6.0034
2019-04-07T03:09:37.909Z,6.0034
2019-04-07T03:10:55.491Z,6.0034
2019-04-07T03:12:13.759Z,5.9732
2019-04-07T03:13:31.634Z,5.9732
2019-04-07T03:14:49.411Z,5.9631
2019-04-07T03:16:07.671Z,5.9631
2019-04-07T03:17:25.662Z,5.9631
2019-04-07T03:18:44.247Z,5.9732
2019-04-07T03:20:02.891Z,5.9933
2019-04-07T03:21:20.492Z,6.0135
2019-04-07T03:22:38.457Z,6.0336
2019-04-07T03:23:56.484Z,6.0638
2019-04-07T03:25:14.014Z,6.0638
2019-04-07T03:26:32.275Z,6.0941
2019-04-07T03:27:51.393Z,6.1142
2019-04-07T03:29:09.752Z,6.1444
2019-04-07T03:30:28.425Z,6.1847
2019-04-07T03:31:50.407Z,6.2149
2019-04-07T03:33:13.235Z,6.2753
2019-04-07T03:34:33.388Z,6.3358
2019-04-07T03:35:53.874Z,6.3760
2019-04-07T03:37:27.089Z,6.4062
2019-04-07T03:38:36.710Z,6.4868
2019-04-07T03:39:54.289Z,6.5372
2019-04-07T03:41:12.011Z,6.5472
2019-04-07T03:42:29.833Z,6.5775
2019-04-07T03:43:48.317Z,6.6077
2019-04-07T03:45:06.073Z,6.6379
2019-04-07T03:46:23.730Z,6.6580
2019-04-07T03:47:42.319Z,6.6882
2019-04-07T03:48:59.931Z,6.6983
2019-04-07T03:50:18.544Z,6.7084
2019-04-07T03:51:36.402Z,6.7084
2019-04-07T03:52:54.466Z,6.7386
2019-04-07T03:54:12.930Z,6.7688
2019-04-07T03:55:31.097Z,6.7889
2019-04-07T03:56:48.846Z,6.7990
2019-04-07T03:58:08.020Z,6.8393
2019-04-07T03:59:24.948Z,6.8695
2019-04-07T04:00:43.426Z,6.8796
2019-04-07T04:02:00.900Z,6.8896
2019-04-07T04:03:19.289Z,6.8796
2019-04-07T04:04:37.267Z,6.8896
2019-04-07T04:05:55.165Z,6.9098
2019-04-07T04:07:22.609Z,6.9098
2019-04-07T04:08:36.240Z,6.9199
2019-04-07T04:09:54.579Z,6.9400
2019-04-07T04:11:12.043Z,6.9501
2019-04-07T04:12:30.021Z,6.9702
2019-04-07T04:13:47.805Z,6.9904
2019-04-07T04:15:06.675Z,7.0206
2019-04-07T04:16:24.923Z,7.0306
2019-04-07T04:17:43.067Z,7.0206
2019-04-07T04:19:00.517Z,7.0306
2019-04-07T04:20:17.962Z,7.0206
2019-04-07T04:21:36.363Z,7.0206
2019-04-07T04:22:54.726Z,6.9904
2019-04-07T04:24:12.327Z,6.9803
2019-04-07T04:25:30.406Z,6.9501
2019-04-07T04:26:48.038Z,6.9400
2019-04-07T04:28:05.517Z,6.9199
2019-04-07T04:29:23.358Z,6.8896
2019-04-07T04:30:42.042Z,6.8796
2019-04-07T04:32:01.399Z,6.8393
2019-04-07T04:33:19.904Z,6.8091
2019-04-07T04:34:39.009Z,6.7990
2019-04-07T04:35:56.537Z,6.7889
2019-04-07T04:37:14.770Z,6.7688
2019-04-07T04:38:32.410Z,6.7587
2019-04-07T04:39:50.975Z,6.7587
2019-04-07T04:41:08.726Z,6.7386
2019-04-07T04:42:26.823Z,6.7386
2019-04-07T04:43:45.150Z,6.7386
2019-04-07T04:45:02.471Z,6.7285
2019-04-07T04:46:20.055Z,6.7285
2019-04-07T04:47:38.128Z,6.6983
2019-04-07T04:48:56.724Z,6.6681
2019-04-07T04:50:14.825Z,6.6580
2019-04-07T04:51:36.271Z,6.6077
2019-04-07T04:52:54.759Z,6.5775
2019-04-07T04:54:12.585Z,6.5372
2019-04-07T04:55:30.129Z,6.5070
2019-04-07T04:56:47.558Z,6.4566
2019-04-07T04:58:05.420Z,6.4264
2019-04-07T04:59:22.989Z,6.4062
2019-04-07T05:00:41.369Z,6.3760
2019-04-07T05:01:59.034Z,6.3760
2019-04-07T05:03:17.364Z,6.3559
2019-04-07T05:04:35.590Z,6.3559
2019-04-07T05:05:53.478Z,6.3559
2019-04-07T05:07:11.317Z,6.3660
2019-04-07T05:08:29.601Z,6.3660
2019-04-07T05:09:52.504Z,6.3962
2019-04-07T05:11:09.611Z,6.4264
2019-04-07T05:12:27.441Z,6.4365
2019-04-07T05:13:44.972Z,6.4566
2019-04-07T05:15:02.453Z,6.4868
2019-04-07T05:16:19.901Z,6.5170
2019-04-07T05:17:36.929Z,6.5472
2019-04-07T05:18:54.578Z,6.5875
2019-04-07T05:20:12.402Z,6.6379
2019-04-07T05:21:30.381Z,6.6983
2019-04-07T05:22:48.726Z,6.7386
2019-04-07T05:24:06.812Z,6.7990
2019-04-07T05:25:24.939Z,6.8393
2019-04-07T05:26:43.024Z,6.8796
2019-04-07T05:28:01.180Z,6.8896
2019-04-07T05:29:18.703Z,6.9199
2019-04-07T05:30:36.562Z,6.9501
2019-04-07T05:31:54.091Z,6.9803
2019-04-07T05:33:12.077Z,7.0206
2019-04-07T05:34:29.572Z,7.0508
2019-04-07T05:35:47.009Z,7.0709
2019-04-07T05:37:04.439Z,7.1213
2019-04-07T05:38:22.338Z,7.1515
2019-04-07T05:39:40.370Z,7.2018
2019-04-07T05:40:58.664Z,7.2119
2019-04-07T05:42:16.642Z,7.2421
2019-04-07T05:43:35.444Z,7.2723
2019-04-07T05:44:53.574Z,7.3227
2019-04-07T05:46:11.059Z,7.3529
2019-04-07T05:47:27.637Z,7.4033
2019-04-07T05:48:45.294Z,7.4536
2019-04-07T05:50:04.111Z,7.4637
2019-04-07T05:51:22.875Z,7.4939
2019-04-07T05:52:41.098Z,7.5241
2019-04-07T05:53:59.284Z,7.5342
2019-04-07T05:55:20.646Z,7.5543
2019-04-07T05:56:39.321Z,7.5745
2019-04-07T05:57:57.501Z,7.6047
2019-04-07T05:59:15.667Z,7.6349
2019-04-07T06:00:33.981Z,7.6651
2019-04-07T06:01:54.808Z,7.6651
2019-04-07T06:03:13.903Z,7.7054
2019-04-07T06:04:31.502Z,7.7356
2019-04-07T06:05:51.117Z,7.7457
2019-04-07T06:07:09.130Z,7.7960
2019-04-07T06:08:32.564Z,7.8564
2019-04-07T06:09:51.262Z,7.8867
2019-04-07T06:11:10.409Z,7.9471
2019-04-07T06:12:28.859Z,8.0377
2019-04-07T06:13:46.611Z,8.0981
2019-04-07T06:15:04.237Z,8.1586
2019-04-07T06:16:22.555Z,8.2492
2019-04-07T06:17:40.082Z,8.3398
2019-04-07T06:18:57.758Z,8.4103
2019-04-07T06:20:17.547Z,8.4808
2019-04-07T06:21:35.198Z,8.6118
2019-04-07T06:22:53.742Z,8.7024
2019-04-07T06:24:12.233Z,8.8132
2019-04-07T06:25:33.096Z,8.9139
2019-04-07T06:26:52.105Z,9.0247
2019-04-07T06:28:09.662Z,9.1254
2019-04-07T06:29:27.962Z,9.2059
2019-04-07T06:30:46.159Z,9.3167
2019-04-07T06:32:05.513Z,9.3973
2019-04-07T06:33:25.299Z,9.4980
2019-04-07T06:34:44.173Z,9.5584
2019-04-07T06:36:01.894Z,9.6390
2019-04-07T06:37:20.130Z,9.6490
2019-04-07T06:38:41.617Z,9.7195
2019-04-07T06:39:59.950Z,9.7900
2019-04-07T06:41:17.430Z,9.8605
2019-04-07T06:42:35.461Z,9.9109
2019-04-07T06:43:52.963Z,9.9713
2019-04-07T06:45:10.875Z,10.0116
2019-04-07T06:46:28.686Z,10.0418
2019-04-07T06:47:46.389Z,10.0116
2019-04-07T06:49:04.282Z,10.0217
2019-04-07T06:50:22.454Z,10.0217
2019-04-07T06:51:39.945Z,10.0418
2019-04-07T06:52:57.699Z,10.0720
2019-04-07T06:54:18.538Z,10.0922
2019-04-07T06:55:37.554Z,10.1425
2019-04-07T06:56:55.500Z,10.1727
2019-04-07T06:58:12.981Z,10.2332
2019-04-07T06:59:30.434Z,10.2734
2019-04-07T07:00:46.967Z,10.3238
2019-04-07T07:02:04.463Z,10.3641
2019-04-07T07:03:22.484Z,10.4245
2019-04-07T07:04:43.593Z,10.5151
2019-04-07T07:06:03.655Z,10.5554
2019-04-07T07:07:21.558Z,10.6360
2019-04-07T07:08:45.830Z,10.6964
2019-04-07T07:10:02.126Z,10.7266
2019-04-07T07:11:28.060Z,10.7770
2019-04-07T07:12:42.536Z,10.8173
2019-04-07T07:13:59.009Z,10.8575
2019-04-07T07:15:16.436Z,10.8878
2019-04-07T07:16:33.931Z,10.9180
2019-04-07T07:17:52.238Z,10.9683
2019-04-07T07:19:12.907Z,10.9985
2019-04-07T07:20:31.193Z,11.0388
2019-04-07T07:21:49.052Z,11.0992
2019-04-07T07:23:07.676Z,11.1697
2019-04-07T07:24:26.345Z,11.1899
2019-04-07T07:25:44.013Z,11.2503
2019-04-07T07:27:02.684Z,11.2906
2019-04-07T07:28:23.710Z,11.3309
2019-04-07T07:29:45.341Z,11.3611
2019-04-07T07:31:04.298Z,11.3913
2019-04-07T07:32:22.560Z,11.4014
2019-04-07T07:33:42.440Z,11.4417
2019-04-07T07:35:01.038Z,11.4719
2019-04-07T07:36:21.419Z,11.5524
2019-04-07T07:37:40.151Z,11.6431
2019-04-07T07:39:02.269Z,11.7236
2019-04-07T07:40:22.119Z,11.8042
2019-04-07T07:41:41.014Z,11.9150
2019-04-07T07:42:59.438Z,12.0157
2019-04-07T07:44:17.581Z,12.1567
2019-04-07T07:45:35.052Z,12.2876
2019-04-07T07:46:52.815Z,12.4487
2019-04-07T07:48:10.889Z,12.6199
2019-04-07T07:49:33.535Z,12.7911
2019-04-07T07:50:51.212Z,12.9724
2019-04-07T07:52:08.669Z,13.1033
2019-04-07T07:53:28.238Z,13.2242
2019-04-07T07:54:46.356Z,13.4055
2019-04-07T07:56:08.454Z,13.5968
2019-04-07T07:57:26.229Z,13.8083
2019-04-07T07:58:43.935Z,13.9996
2019-04-07T08:00:04.550Z,14.2010
2019-04-07T08:01:24.427Z,14.3622
2019-04-07T08:02:42.050Z,14.5233
2019-04-07T08:03:59.746Z,14.6542
2019-04-07T08:05:17.250Z,14.7751
2019-04-07T08:06:36.680Z,14.8254
2019-04-07T08:07:56.784Z,14.8053
2019-04-07T08:09:15.510Z,14.7952
2019-04-07T08:10:36.354Z,14.7751
2019-04-07T08:11:54.388Z,14.7751
2019-04-07T08:13:11.868Z,14.8053
2019-04-07T08:14:29.364Z,14.8254
2019-04-07T08:15:46.946Z,14.8859
2019-04-07T08:17:04.483Z,15.0067
2019-04-07T08:18:21.906Z,15.1376
2019-04-07T08:19:42.257Z,15.2786
2019-04-07T08:21:00.765Z,15.4599
2019-04-07T08:22:27.462Z,15.6009
2019-04-07T08:23:43.650Z,15.7419
2019-04-07T08:25:02.573Z,15.8023
2019-04-07T08:26:23.890Z,15.8325
2019-04-07T08:27:41.991Z,15.8325
2019-04-07T08:29:00.102Z,15.9030
2019-04-07T08:30:17.331Z,16.0541
2019-04-07T08:31:34.923Z,16.2253
2019-04-07T08:32:53.242Z,16.3461
2019-04-07T08:34:10.955Z,16.4569
2019-04-07T08:35:28.849Z,16.6382
2019-04-07T08:36:42.490Z,16.9403
2019-04-07T08:38:00.975Z,17.3029
2019-04-07T08:39:23.771Z,17.7158
2019-04-07T08:40:40.842Z,18.2697
2019-04-07T08:41:58.303Z,19.1357
2019-04-07T08:43:19.680Z,19.8709
2019-04-07T08:44:38.146Z,20.7672
2019-04-07T08:45:55.764Z,21.6534
2019-04-07T08:47:18.844Z,22.4289
2019-04-07T08:48:35.587Z,23.1540
2019-04-07T08:49:55.434Z,23.6877
2019-04-07T08:51:14.904Z,24.3021
2019-04-07T08:52:33.153Z,24.9063
2019-04-07T08:53:50.622Z,25.4602
2019-04-07T08:55:08.083Z,25.5508
2019-04-07T08:56:26.648Z,25.9940
2019-04-07T08:57:45.680Z,26.3464
2019-04-07T08:59:03.897Z,26.7191
2019-04-07T09:00:21.463Z,26.6183
2019-04-07T09:01:38.937Z,26.1652
2019-04-07T09:03:03.642Z,26.2860
2019-04-07T09:04:18.928Z,26.4371
2019-04-07T09:05:37.377Z,26.6989
2019-04-07T09:06:54.890Z,27.0312
2019-04-07T09:08:12.317Z,27.3636
2019-04-07T09:09:33.907Z,27.5146
2019-04-07T09:10:53.828Z,27.7664
2019-04-07T09:12:11.448Z,28.0283
2019-04-07T09:13:31.677Z,28.2901
2019-04-07T09:14:51.462Z,28.5822
2019-04-07T09:16:11.527Z,28.8037
2019-04-07T09:17:38.577Z,28.9548
2019-04-07T09:19:01.120Z,29.0353
2019-04-07T09:20:16.939Z,29.0353
2019-04-07T09:21:39.975Z,28.9548
2019-04-07T09:22:58.257Z,28.9548
2019-04-07T09:24:16.757Z,29.0353
2019-04-07T09:25:37.855Z,28.8943
2019-04-07T09:26:56.666Z,28.9346
2019-04-07T09:28:14.300Z,29.1360
2019-04-07T09:29:32.431Z,29.3576
2019-04-07T09:30:42.157Z,29.2065
2019-04-07T09:32:00.105Z,29.0857
2019-04-07T09:33:16.730Z,28.9044
2019-04-07T09:34:34.555Z,28.4915
2019-04-07T09:35:56.673Z,27.9578
2019-04-07T09:37:17.675Z,27.2226
2019-04-07T09:38:36.943Z,26.4774
2019-04-07T09:39:59.553Z,25.7724
2019-04-07T09:41:21.569Z,25.0473
2019-04-07T09:42:40.223Z,24.3726
2019-04-07T09:44:01.113Z,23.7985
2019-04-07T09:45:19.979Z,23.2245
2019-04-07T09:46:41.629Z,22.7914
2019-04-07T09:47:59.982Z,22.3584
2019-04-07T09:49:21.239Z,22.0563
2019-04-07T09:50:40.805Z,21.8448
2019-04-07T09:51:58.287Z,21.7139
2019-04-07T09:53:17.071Z,21.6534
2019-04-07T09:54:36.190Z,21.6837
2019-04-07T09:55:55.558Z,21.9153
2019-04-07T09:57:14.154Z,22.3483
2019-04-07T09:58:32.006Z,22.7512
2019-04-07T09:59:52.209Z,23.1943
2019-04-07T10:01:11.078Z,23.7280
2019-04-07T10:02:32.038Z,24.3927
2019-04-07T10:03:51.063Z,25.1279
2019-04-07T10:05:11.131Z,25.4199
2019-04-07T10:06:29.843Z,25.4602
2019-04-07T10:07:47.905Z,25.3293
2019-04-07T10:09:05.575Z,25.0876
2019-04-07T10:10:23.731Z,24.8056
2019-04-07T10:11:41.760Z,24.5236
2019-04-07T10:12:59.743Z,24.2416
2019-04-07T10:14:18.457Z,23.8992
2019-04-07T10:15:36.152Z,23.5065
2019-04-07T10:16:53.672Z,23.0734
2019-04-07T10:18:11.135Z,22.6404
2019-04-07T10:19:29.252Z,22.2980
2019-04-07T10:20:47.370Z,21.9858
2019-04-07T10:22:04.808Z,21.6937
2019-04-07T10:23:23.097Z,21.4420
2019-04-07T10:24:40.607Z,21.2506
2019-04-07T10:25:58.461Z,21.1398
2019-04-07T10:27:17.620Z,21.1197
2019-04-07T10:28:36.710Z,21.0995
2019-04-07T10:29:56.611Z,21.0693
2019-04-07T10:31:13.801Z,20.9485
2019-04-07T10:32:31.887Z,20.8377
2019-04-07T10:33:49.486Z,20.7370
2019-04-07T10:35:07.054Z,20.6967
2019-04-07T10:36:25.801Z,20.6665
2019-04-07T10:37:44.301Z,20.6061
2019-04-07T10:39:03.160Z,20.4349
2019-04-07T10:40:23.063Z,20.1428
2019-04-07T10:41:41.737Z,19.8306
2019-04-07T10:42:59.757Z,19.4781
2019-04-07T10:44:17.906Z,19.1760
2019-04-07T10:45:35.515Z,18.8235
2019-04-07T10:46:52.961Z,18.5114
2019-04-07T10:48:11.109Z,18.2294
2019-04-07T10:49:29.568Z,17.9877
2019-04-07T10:50:47.067Z,17.7661
2019-04-07T10:52:04.575Z,17.6151
2019-04-07T10:53:22.727Z,17.4841
2019-04-07T10:54:40.478Z,17.3734
2019-04-07T10:55:57.997Z,17.3633
2019-04-07T10:57:16.634Z,17.3633
2019-04-07T10:58:35.109Z,17.4338
2019-04-07T10:59:53.295Z,17.6151
2019-04-07T11:01:11.124Z,17.8668
2019-04-07T11:02:29.362Z,18.1689
2019-04-07T11:03:46.871Z,18.5114
2019-04-07T11:05:05.111Z,18.8135
2019-04-07T11:06:22.788Z,19.0350
2019-04-07T11:07:40.431Z,19.1760
2019-04-07T11:08:57.918Z,19.2465
2019-04-07T11:10:15.885Z,19.2566
2019-04-07T11:11:33.374Z,19.2566
2019-04-07T11:12:51.354Z,19.1861
2019-04-07T11:14:09.855Z,19.0955
2019-04-07T11:15:28.304Z,19.0048
2019-04-07T11:16:46.998Z,18.9243
2019-04-07T11:18:04.614Z,18.8437
2019-04-07T11:19:22.084Z,18.7631
2019-04-07T11:20:39.525Z,18.7027
2019-04-07T11:21:57.961Z,18.6322
2019-04-07T11:23:15.609Z,18.5818
2019-04-07T11:24:33.859Z,18.5214
2019-04-07T11:25:51.400Z,18.5114
2019-04-07T11:27:09.275Z,18.5214
2019-04-07T11:28:28.855Z,18.6020
2019-04-07T11:29:46.715Z,18.7228
2019-04-07T11:31:04.165Z,18.8840
2019-04-07T11:32:20.655Z,19.0350
2019-04-07T11:33:38.114Z,19.1055
2019-04-07T11:34:55.551Z,19.1760
2019-04-07T11:36:13.811Z,19.2163
2019-04-07T11:37:31.346Z,19.2566
2019-04-07T11:38:49.477Z,19.3271
2019-04-07T11:40:06.993Z,19.3976
2019-04-07T11:41:27.326Z,19.4379
2019-04-07T11:42:46.075Z,19.4580
2019-04-07T11:44:03.580Z,19.4580
2019-04-07T11:45:21.061Z,19.4379
2019-04-07T11:46:38.923Z,19.3875
2019-04-07T11:47:55.395Z,19.3573
2019-04-07T11:49:13.506Z,19.3069
2019-04-07T11:50:31.055Z,19.3069
2019-04-07T11:51:48.956Z,19.3069
2019-04-07T11:53:07.443Z,19.2566
2019-04-07T11:54:25.201Z,19.2264
2019-04-07T11:55:43.179Z,19.2163
2019-04-07T11:57:00.896Z,19.2163
2019-04-07T11:58:25.534Z,19.1861
2019-04-07T11:59:39.870Z,19.1760
2019-04-07T12:00:58.103Z,19.1559
2019-04-07T12:02:18.561Z,19.0955
2019-04-07T12:03:36.467Z,18.9545
2019-04-07T12:04:55.382Z,18.8538
2019-04-07T12:06:14.335Z,18.8235
2019-04-07T12:07:33.569Z,18.8538
2019-04-07T12:08:51.173Z,18.9847
2019-04-07T12:10:09.548Z,19.0955
2019-04-07T12:11:27.745Z,19.2868
2019-04-07T12:12:45.288Z,19.4278
2019-04-07T12:14:02.845Z,19.5486
2019-04-07T12:15:24.172Z,19.6494
2019-04-07T12:16:42.705Z,19.7702
2019-04-07T12:18:00.311Z,19.8608
2019-04-07T12:19:20.391Z,19.9615
2019-04-07T12:20:42.011Z,20.0320
2019-04-07T12:21:59.510Z,20.1428
2019-04-07T12:23:21.773Z,20.3342
2019-04-07T12:24:39.359Z,20.4953
2019-04-07T12:25:57.586Z,20.5658
2019-04-07T12:27:15.183Z,20.5759
2019-04-07T12:28:33.392Z,20.5658
2019-04-07T12:29:51.898Z,20.4953
2019-04-07T12:31:10.215Z,20.4248
2019-04-07T12:32:27.708Z,20.3845
2019-04-07T12:33:45.221Z,20.3140
2019-04-07T12:35:03.183Z,20.2335
2019-04-07T12:36:21.581Z,20.2133
2019-04-07T12:37:43.340Z,20.2637
2019-04-07T12:39:01.918Z,20.3140
2019-04-07T12:40:22.341Z,20.4147
2019-04-07T12:41:40.064Z,20.5054
2019-04-07T12:42:58.088Z,20.5658
2019-04-07T12:44:15.863Z,20.6061
2019-04-07T12:45:35.642Z,20.6161
2019-04-07T12:46:54.008Z,20.6363
2019-04-07T12:48:11.625Z,20.6161
2019-04-07T12:49:29.863Z,20.6061
2019-04-07T12:50:49.825Z,20.5859
2019-04-07T12:52:08.573Z,20.5759
2019-04-07T12:53:26.384Z,20.7672
2019-04-07T12:54:43.969Z,21.1298
2019-04-07T12:56:02.453Z,21.4923
2019-04-07T12:57:20.188Z,21.9052
2019-04-07T12:58:41.221Z,22.2778
2019-04-07T12:59:59.806Z,22.5699
2019-04-07T13:01:19.802Z,22.7310
2019-04-07T13:02:38.127Z,22.8015
2019-04-07T13:03:55.851Z,22.7310
2019-04-07T13:05:13.490Z,22.5800
2019-04-07T13:06:30.995Z,22.5699
2019-04-07T13:07:51.247Z,22.9224
2019-04-07T13:09:10.342Z,23.4158
2019-04-07T13:10:28.062Z,23.9697
2019-04-07T13:11:49.425Z,24.5035
2019-04-07T13:13:08.022Z,25.0876
2019-04-07T13:14:25.707Z,25.6113
2019-04-07T13:15:47.478Z,26.0544
2019-04-07T13:17:05.707Z,26.2256
2019-04-07T13:18:23.187Z,26.3162
2019-04-07T13:19:44.043Z,26.5680
2019-04-07T13:21:03.321Z,26.8903
2019-04-07T13:22:21.526Z,27.2226
2019-04-07T13:23:39.717Z,27.6456
2019-04-07T13:24:59.008Z,28.1088
2019-04-07T13:26:17.604Z,28.4814
2019-04-07T13:27:37.231Z,28.5117
2019-04-07T13:28:56.426Z,28.6224
2019-04-07T13:30:13.914Z,28.6627
2019-04-07T13:31:31.864Z,28.7030
2019-04-07T13:32:53.004Z,28.6829
2019-04-07T13:34:12.690Z,28.6829
2019-04-07T13:35:29.261Z,28.8037
2019-04-07T13:36:46.695Z,28.9044
2019-04-07T13:38:05.559Z,28.9951
2019-04-07T13:39:22.021Z,28.8943
2019-04-07T13:40:42.655Z,28.8138
2019-04-07T13:42:02.217Z,28.8339
2019-04-07T13:43:19.686Z,28.9044
2019-04-07T13:44:39.627Z,29.0353
2019-04-07T13:45:58.830Z,28.9548
2019-04-07T13:47:16.403Z,28.7030
2019-04-07T13:48:35.509Z,28.2498
2019-04-07T13:49:55.406Z,27.7463
2019-04-07T13:51:15.745Z,27.4341
2019-04-07T13:52:34.411Z,27.2125
2019-04-07T13:53:52.331Z,27.1924
2019-04-07T13:55:09.826Z,27.2125
2019-04-07T13:56:27.276Z,27.1823
2019-04-07T13:57:45.003Z,27.3132
2019-04-07T13:59:05.961Z,27.4139
2019-04-07T14:00:25.223Z,27.2125
2019-04-07T14:01:42.710Z,27.0413
2019-04-07T14:03:01.320Z,26.9205
2019-04-07T14:04:21.159Z,26.8198
2019-04-07T14:05:40.687Z,26.8903
2019-04-07T14:06:58.820Z,26.8802
2019-04-07T14:08:16.466Z,26.7291
2019-04-07T14:09:35.380Z,26.5680
2019-04-07T14:10:52.912Z,26.5781
2019-04-07T14:12:12.530Z,26.6586
2019-04-07T14:13:31.153Z,26.8097
2019-04-07T14:14:49.398Z,26.9104
2019-04-07T14:16:07.419Z,27.0413
2019-04-07T14:17:25.004Z,27.1722
2019-04-07T14:18:44.991Z,27.3233
2019-04-07T14:20:05.011Z,27.2528
2019-04-07T14:21:22.788Z,27.0413
2019-04-07T14:22:40.996Z,26.9406
2019-04-07T14:23:59.315Z,26.8701
2019-04-07T14:25:16.823Z,26.8802
2019-04-07T14:26:34.646Z,26.8701
2019-04-07T14:27:52.601Z,26.5378
2019-04-07T14:29:10.109Z,26.0645
2019-04-07T14:30:28.044Z,25.5005
2019-04-07T14:31:45.542Z,24.8660
2019-04-07T14:33:03.454Z,24.2517
2019-04-07T14:34:21.771Z,23.7784
2019-04-07T14:35:39.249Z,23.5971
2019-04-07T14:37:00.030Z,23.6475
2019-04-07T14:38:17.516Z,23.8489
2019-04-07T14:39:35.809Z,24.1611
2019-04-07T14:40:53.313Z,24.4028
2019-04-07T14:42:11.266Z,24.4531
2019-04-07T14:43:29.894Z,24.3524
2019-04-07T14:44:47.380Z,24.1611
2019-04-07T14:46:04.384Z,24.0302
2019-04-07T14:47:21.914Z,24.0302
2019-04-07T14:48:40.212Z,23.9697
2019-04-07T14:49:57.749Z,23.8287
2019-04-07T14:51:15.539Z,23.7784
2019-04-07T14:52:33.722Z,23.8388
2019-04-07T14:53:51.185Z,23.9093
2019-04-07T14:55:08.654Z,24.0302
2019-04-07T14:56:26.295Z,24.1611
2019-04-07T14:57:43.751Z,24.2819
2019-04-07T14:59:00.651Z,24.4330
2019-04-07T15:00:18.374Z,24.5740
2019-04-07T15:01:36.765Z,24.6545
2019-04-07T15:02:54.267Z,24.7754
2019-04-07T15:04:11.753Z,24.9265
2019-04-07T15:05:29.846Z,25.0473
2019-04-07T15:06:47.363Z,25.1379
2019-04-07T15:07:59.483Z,25.2084
2019-04-07T15:09:18.793Z,25.2386
2019-04-07T15:10:37.241Z,25.1480
2019-04-07T15:11:54.809Z,24.9869
2019-04-07T15:13:12.257Z,24.6445
2019-04-07T15:14:32.874Z,24.2819
2019-04-07T15:15:51.673Z,23.9999
2019-04-07T15:17:10.955Z,23.6978
2019-04-07T15:18:28.654Z,23.5065
2019-04-07T15:19:46.250Z,23.4561
2019-04-07T15:21:04.575Z,23.3554
2019-04-07T15:22:25.887Z,23.2043
2019-04-07T15:23:46.795Z,23.1036
2019-04-07T15:25:07.201Z,23.1339
2019-04-07T15:26:25.520Z,23.2346
2019-04-07T15:27:42.981Z,23.4158
2019-04-07T15:29:05.334Z,23.6072
2019-04-07T15:30:22.853Z,23.6978
2019-04-07T15:31:40.612Z,23.7482
2019-04-07T15:33:01.008Z,23.6475
2019-04-07T15:34:20.126Z,23.5065
2019-04-07T15:35:38.289Z,23.3856
2019-04-07T15:36:56.797Z,23.2346
2019-04-07T15:38:15.285Z,23.1540
2019-04-07T15:39:32.887Z,23.0029
2019-04-07T15:40:50.641Z,22.7209
2019-04-07T15:42:09.463Z,22.5095
2019-04-07T15:43:27.991Z,22.2174
2019-04-07T15:44:46.267Z,21.8448
2019-04-07T15:46:03.845Z,21.4319
2019-04-07T15:47:22.234Z,21.1298
2019-04-07T15:48:40.825Z,20.8679
2019-04-07T15:49:59.478Z,20.6564
2019-04-07T15:51:17.570Z,20.4248
2019-04-07T15:52:35.838Z,20.1831
2019-04-07T15:53:54.246Z,19.9817
2019-04-07T15:55:11.898Z,19.7601
2019-04-07T15:56:30.342Z,19.5789
2019-04-07T15:57:48.079Z,19.4278
2019-04-07T15:59:05.721Z,19.2868
2019-04-07T16:00:23.761Z,19.0753